sensor_id;sensor_type;location;lat;lon;timestamp;temperature;humidity
18083;DHT22;9168;51.194;6.840;2023-12-20T00:02:12;8.00;99.90
18083;DHT22;9168;51.194;6.840;2023-12-20T00:05:51;7.90;99.90
18083;DHT22;9168;51.194;6.840;2023-12-20T00:08:22;7.90;99.90
18083;DHT22;9168;51.194;6.840;2023-12-20T00:11:21;7.80;99.90
18083;DHT22;9168;51.194;6.840;2023-12-20T00:18:18;7.70;99.90
18083;DHT22;9168;51.194;6.840;2023-12-20T00:21:03;7.70;99.90
18083;DHT22;9168;51.194;6.840;2023-12-20T00:23:39;7.70;99.90
18083;DHT22;9168;51.194;6.840;2023-12-20T00:26:16;7.60;99.90
18083;DHT22;9168;51.194;6.840;2023-12-20T00:32:53;7.60;99.90
18083;DHT22;9168;51.194;6.840;2023-12-20T00:51:47;7.60;99.90
18083;DHT22;9168;51.194;6.840;2023-12-20T00:54:35;7.50;99.90
18083;DHT22;9168;51.194;6.840;2023-12-20T01:00:43;7.40;99.90
18083;DHT22;9168;51.194;6.840;2023-12-20T01:03:45;7.40;99.90
18083;DHT22;9168;51.194;6.840;2023-12-20T01:06:16;7.40;99.90
18083;DHT22;9168;51.194;6.840;2023-12-20T01:08:50;7.40;99.90
18083;DHT22;9168;51.194;6.840;2023-12-20T01:11:26;7.40;99.90
18083;DHT22;9168;51.194;6.840;2023-12-20T01:14:07;7.40;99.90
18083;DHT22;9168;51.194;6.840;2023-12-20T01:16:45;7.50;99.90
18083;DHT22;9168;51.194;6.840;2023-12-20T01:19:21;7.50;99.90
18083;DHT22;9168;51.194;6.840;2023-12-20T01:22:05;7.50;99.90
18083;DHT22;9168;51.194;6.840;2023-12-20T01:31:24;7.50;99.90
18083;DHT22;9168;51.194;6.840;2023-12-20T01:34:31;7.40;99.90
18083;DHT22;9168;51.194;6.840;2023-12-20T01:37:16;7.40;99.90
18083;DHT22;9168;51.194;6.840;2023-12-20T01:40:16;7.40;99.90
18083;DHT22;9168;51.194;6.840;2023-12-20T01:43:06;7.40;99.90
18083;DHT22;9168;51.194;6.840;2023-12-20T01:45:38;7.40;99.90
18083;DHT22;9168;51.194;6.840;2023-12-20T01:48:24;7.40;99.90
18083;DHT22;9168;51.194;6.840;2023-12-20T01:50:51;7.50;99.90
18083;DHT22;9168;51.194;6.840;2023-12-20T01:53:26;7.50;99.90
18083;DHT22;9168;51.194;6.840;2023-12-20T01:55:59;7.40;99.90
18083;DHT22;9168;51.194;6.840;2023-12-20T01:58:37;7.40;99.90
18083;DHT22;9168;51.194;6.840;2023-12-20T02:01:23;7.40;99.90
18083;DHT22;9168;51.194;6.840;2023-12-20T02:03:56;7.30;99.90
18083;DHT22;9168;51.194;6.840;2023-12-20T02:06:30;7.20;99.90
18083;DHT22;9168;51.194;6.840;2023-12-20T02:09:13;7.20;99.90
18083;DHT22;9168;51.194;6.840;2023-12-20T02:11:40;7.20;99.90
18083;DHT22;9168;51.194;6.840;2023-12-20T02:14:38;7.00;99.90
18083;DHT22;9168;51.194;6.840;2023-12-20T02:17:18;7.00;99.90
18083;DHT22;9168;51.194;6.840;2023-12-20T02:19:54;7.00;99.90
18083;DHT22;9168;51.194;6.840;2023-12-20T02:22:36;6.90;99.90
18083;DHT22;9168;51.194;6.840;2023-12-20T02:25:17;6.80;99.90
18083;DHT22;9168;51.194;6.840;2023-12-20T02:27:58;6.80;99.90
18083;DHT22;9168;51.194;6.840;2023-12-20T02:30:27;6.70;99.90
18083;DHT22;9168;51.194;6.840;2023-12-20T02:33:08;6.70;99.90
18083;DHT22;9168;51.194;6.840;2023-12-20T02:35:41;6.70;99.90
18083;DHT22;9168;51.194;6.840;2023-12-20T02:38:37;6.70;99.90
18083;DHT22;9168;51.194;6.840;2023-12-20T02:41:04;6.70;99.90
18083;DHT22;9168;51.194;6.840;2023-12-20T02:43:49;6.60;99.90
18083;DHT22;9168;51.194;6.840;2023-12-20T02:46:24;6.60;99.90
18083;DHT22;9168;51.194;6.840;2023-12-20T02:49:09;6.60;99.90
18083;DHT22;9168;51.194;6.840;2023-12-20T02:51:36;6.70;99.90
18083;DHT22;9168;51.194;6.840;2023-12-20T02:54:13;6.70;99.90
18083;DHT22;9168;51.194;6.840;2023-12-20T02:56:42;6.70;99.90
18083;DHT22;9168;51.194;6.840;2023-12-20T02:59:22;6.70;99.90
18083;DHT22;9168;51.194;6.840;2023-12-20T03:02:56;6.80;99.90
18083;DHT22;9168;51.194;6.840;2023-12-20T03:05:08;6.80;99.90
18083;DHT22;9168;51.194;6.840;2023-12-20T03:18:21;6.70;99.90
18083;DHT22;9168;51.194;6.840;2023-12-20T03:20:56;6.70;99.90
18083;DHT22;9168;51.194;6.840;2023-12-20T03:23:29;6.70;99.90
18083;DHT22;9168;51.194;6.840;2023-12-20T03:29:23;6.70;99.90
18083;DHT22;9168;51.194;6.840;2023-12-20T03:32:20;6.70;99.90
18083;DHT22;9168;51.194;6.840;2023-12-20T03:38:07;6.70;99.90
18083;DHT22;9168;51.194;6.840;2023-12-20T03:40:48;6.70;99.90
18083;DHT22;9168;51.194;6.840;2023-12-20T03:43:21;6.70;99.90
18083;DHT22;9168;51.194;6.840;2023-12-20T03:46:05;6.70;99.90
18083;DHT22;9168;51.194;6.840;2023-12-20T03:48:34;6.70;99.90
18083;DHT22;9168;51.194;6.840;2023-12-20T03:51:02;6.60;99.90
18083;DHT22;9168;51.194;6.840;2023-12-20T03:53:38;6.60;99.90
18083;DHT22;9168;51.194;6.840;2023-12-20T03:56:22;6.50;99.90
18083;DHT22;9168;51.194;6.840;2023-12-20T04:01:42;6.40;99.90
18083;DHT22;9168;51.194;6.840;2023-12-20T04:04:28;6.40;99.90
18083;DHT22;9168;51.194;6.840;2023-12-20T04:07:09;6.40;99.90
18083;DHT22;9168;51.194;6.840;2023-12-20T04:12:50;6.40;99.90
18083;DHT22;9168;51.194;6.840;2023-12-20T04:15:25;6.40;99.90
18083;DHT22;9168;51.194;6.840;2023-12-20T04:18:07;6.40;99.90
18083;DHT22;9168;51.194;6.840;2023-12-20T04:20:41;6.40;99.90
18083;DHT22;9168;51.194;6.840;2023-12-20T04:23:39;6.30;99.90
18083;DHT22;9168;51.194;6.840;2023-12-20T04:26:10;6.30;99.90
18083;DHT22;9168;51.194;6.840;2023-12-20T04:29:04;6.30;99.90
18083;DHT22;9168;51.194;6.840;2023-12-20T04:31:57;6.30;99.90
18083;DHT22;9168;51.194;6.840;2023-12-20T04:38:29;6.20;99.90
18083;DHT22;9168;51.194;6.840;2023-12-20T04:41:31;6.30;99.90
18083;DHT22;9168;51.194;6.840;2023-12-20T04:44:05;6.30;99.90
18083;DHT22;9168;51.194;6.840;2023-12-20T04:56:00;6.30;99.90
18083;DHT22;9168;51.194;6.840;2023-12-20T04:58:54;6.30;99.90
18083;DHT22;9168;51.194;6.840;2023-12-20T05:01:33;6.30;99.90
18083;DHT22;9168;51.194;6.840;2023-12-20T05:04:23;6.30;99.90
18083;DHT22;9168;51.194;6.840;2023-12-20T05:07:04;6.30;99.90
18083;DHT22;9168;51.194;6.840;2023-12-20T05:12:42;6.20;99.90
18083;DHT22;9168;51.194;6.840;2023-12-20T05:25:27;6.30;99.90
18083;DHT22;9168;51.194;6.840;2023-12-20T05:28:13;6.30;99.90
18083;DHT22;9168;51.194;6.840;2023-12-20T05:31:09;6.30;99.90
18083;DHT22;9168;51.194;6.840;2023-12-20T05:43:51;6.20;99.90
18083;DHT22;9168;51.194;6.840;2023-12-20T05:46:36;6.20;99.90
18083;DHT22;9168;51.194;6.840;2023-12-20T05:49:13;6.20;99.90
18083;DHT22;9168;51.194;6.840;2023-12-20T05:52:14;6.30;99.90
18083;DHT22;9168;51.194;6.840;2023-12-20T06:01:16;6.30;99.90
18083;DHT22;9168;51.194;6.840;2023-12-20T06:03:55;6.30;99.90
18083;DHT22;9168;51.194;6.840;2023-12-20T06:07:12;6.40;99.90
18083;DHT22;9168;51.194;6.840;2023-12-20T06:09:55;6.40;99.90
18083;DHT22;9168;51.194;6.840;2023-12-20T06:15:54;6.40;99.90
18083;DHT22;9168;51.194;6.840;2023-12-20T06:18:36;6.40;99.90
18083;DHT22;9168;51.194;6.840;2023-12-20T06:21:09;6.50;99.90
18083;DHT22;9168;51.194;6.840;2023-12-20T06:23:43;6.40;99.90
18083;DHT22;9168;51.194;6.840;2023-12-20T06:26:15;6.40;99.90
18083;DHT22;9168;51.194;6.840;2023-12-20T06:28:42;6.40;99.90
18083;DHT22;9168;51.194;6.840;2023-12-20T06:31:33;6.50;99.90
18083;DHT22;9168;51.194;6.840;2023-12-20T06:34:01;6.50;99.90
18083;DHT22;9168;51.194;6.840;2023-12-20T06:50:36;6.50;99.90
18083;DHT22;9168;51.194;6.840;2023-12-20T06:54:45;6.60;99.90
18083;DHT22;9168;51.194;6.840;2023-12-20T06:57:39;6.50;99.90
18083;DHT22;9168;51.194;6.840;2023-12-20T07:00:26;6.50;99.90
18083;DHT22;9168;51.194;6.840;2023-12-20T07:03:17;6.50;99.90
18083;DHT22;9168;51.194;6.840;2023-12-20T07:05:47;6.50;99.90
18083;DHT22;9168;51.194;6.840;2023-12-20T07:15:18;6.60;99.90
18083;DHT22;9168;51.194;6.840;2023-12-20T07:17:52;6.60;99.90
18083;DHT22;9168;51.194;6.840;2023-12-20T07:20:22;6.60;99.90
18083;DHT22;9168;51.194;6.840;2023-12-20T07:32:49;6.70;99.90
18083;DHT22;9168;51.194;6.840;2023-12-20T07:35:34;6.70;99.90
18083;DHT22;9168;51.194;6.840;2023-12-20T07:38:01;6.70;99.90
18083;DHT22;9168;51.194;6.840;2023-12-20T07:40:46;6.70;99.90
18083;DHT22;9168;51.194;6.840;2023-12-20T07:43:44;6.70;99.90
18083;DHT22;9168;51.194;6.840;2023-12-20T07:48:46;6.70;99.90
18083;DHT22;9168;51.194;6.840;2023-12-20T07:51:22;6.70;99.90
18083;DHT22;9168;51.194;6.840;2023-12-20T07:54:32;6.70;99.90
18083;DHT22;9168;51.194;6.840;2023-12-20T07:57:04;6.70;99.90
18083;DHT22;9168;51.194;6.840;2023-12-20T07:59:45;6.70;99.90
18083;DHT22;9168;51.194;6.840;2023-12-20T08:02:21;6.80;99.90
18083;DHT22;9168;51.194;6.840;2023-12-20T08:05:25;6.80;99.90
18083;DHT22;9168;51.194;6.840;2023-12-20T08:11:23;6.80;99.90
18083;DHT22;9168;51.194;6.840;2023-12-20T08:14:29;6.80;99.90
18083;DHT22;9168;51.194;6.840;2023-12-20T08:17:39;6.80;99.90
18083;DHT22;9168;51.194;6.840;2023-12-20T08:20:38;6.80;99.90
18083;DHT22;9168;51.194;6.840;2023-12-20T08:23:12;6.80;99.90
18083;DHT22;9168;51.194;6.840;2023-12-20T08:25:46;6.80;99.90
18083;DHT22;9168;51.194;6.840;2023-12-20T08:28:15;6.80;99.90
18083;DHT22;9168;51.194;6.840;2023-12-20T08:30:42;6.80;99.90
18083;DHT22;9168;51.194;6.840;2023-12-20T08:33:09;6.80;99.90
18083;DHT22;9168;51.194;6.840;2023-12-20T08:35:38;6.90;99.90
18083;DHT22;9168;51.194;6.840;2023-12-20T08:38:05;6.90;99.90
18083;DHT22;9168;51.194;6.840;2023-12-20T08:40:32;6.90;99.90
18083;DHT22;9168;51.194;6.840;2023-12-20T08:42:59;6.90;99.90
18083;DHT22;9168;51.194;6.840;2023-12-20T08:45:30;6.90;99.90
18083;DHT22;9168;51.194;6.840;2023-12-20T08:51:18;6.90;99.90
18083;DHT22;9168;51.194;6.840;2023-12-20T08:53:49;6.80;99.90
18083;DHT22;9168;51.194;6.840;2023-12-20T08:56:19;6.80;99.90
18083;DHT22;9168;51.194;6.840;2023-12-20T08:58:48;6.80;99.90
18083;DHT22;9168;51.194;6.840;2023-12-20T09:01:16;6.80;99.90
18083;DHT22;9168;51.194;6.840;2023-12-20T09:03:43;6.80;99.90
18083;DHT22;9168;51.194;6.840;2023-12-20T09:06:10;6.80;99.90
18083;DHT22;9168;51.194;6.840;2023-12-20T09:08:36;6.90;99.90
18083;DHT22;9168;51.194;6.840;2023-12-20T09:11:03;6.80;99.90
18083;DHT22;9168;51.194;6.840;2023-12-20T09:13:30;6.90;99.90
18083;DHT22;9168;51.194;6.840;2023-12-20T09:15:57;6.90;99.90
18083;DHT22;9168;51.194;6.840;2023-12-20T09:18:26;6.90;99.90
18083;DHT22;9168;51.194;6.840;2023-12-20T09:20:53;6.80;99.90
18083;DHT22;9168;51.194;6.840;2023-12-20T09:23:19;6.90;99.90
18083;DHT22;9168;51.194;6.840;2023-12-20T09:25:46;6.90;99.90
18083;DHT22;9168;51.194;6.840;2023-12-20T09:28:13;6.90;99.90
18083;DHT22;9168;51.194;6.840;2023-12-20T09:30:40;6.90;99.90
18083;DHT22;9168;51.194;6.840;2023-12-20T09:33:07;6.90;99.90
18083;DHT22;9168;51.194;6.840;2023-12-20T09:35:36;6.90;99.90
18083;DHT22;9168;51.194;6.840;2023-12-20T09:38:03;6.90;99.90
18083;DHT22;9168;51.194;6.840;2023-12-20T09:40:32;6.90;99.90
18083;DHT22;9168;51.194;6.840;2023-12-20T09:43:03;7.00;99.90
18083;DHT22;9168;51.194;6.840;2023-12-20T09:45:31;7.00;99.90
18083;DHT22;9168;51.194;6.840;2023-12-20T09:47:58;6.90;99.90
18083;DHT22;9168;51.194;6.840;2023-12-20T09:50:26;6.90;99.90
18083;DHT22;9168;51.194;6.840;2023-12-20T09:52:57;6.90;99.90
18083;DHT22;9168;51.194;6.840;2023-12-20T09:55:25;6.90;99.90
18083;DHT22;9168;51.194;6.840;2023-12-20T09:57:54;6.90;99.90
18083;DHT22;9168;51.194;6.840;2023-12-20T10:00:21;6.90;99.90
18083;DHT22;9168;51.194;6.840;2023-12-20T10:02:50;6.90;99.90
18083;DHT22;9168;51.194;6.840;2023-12-20T10:05:26;7.00;99.90
18083;DHT22;9168;51.194;6.840;2023-12-20T10:07:53;7.00;99.90
18083;DHT22;9168;51.194;6.840;2023-12-20T10:10:21;7.00;99.90
18083;DHT22;9168;51.194;6.840;2023-12-20T10:13:01;7.00;99.90
18083;DHT22;9168;51.194;6.840;2023-12-20T10:15:29;7.00;99.90
18083;DHT22;9168;51.194;6.840;2023-12-20T10:17:56;7.00;99.90
18083;DHT22;9168;51.194;6.840;2023-12-20T10:20:23;7.00;99.90
18083;DHT22;9168;51.194;6.840;2023-12-20T10:22:50;7.00;99.90
18083;DHT22;9168;51.194;6.840;2023-12-20T10:25:20;7.00;99.90
18083;DHT22;9168;51.194;6.840;2023-12-20T10:27:47;7.00;99.90
18083;DHT22;9168;51.194;6.840;2023-12-20T10:30:14;7.00;99.90
18083;DHT22;9168;51.194;6.840;2023-12-20T10:32:41;7.00;99.90
18083;DHT22;9168;51.194;6.840;2023-12-20T10:35:09;7.10;99.90
18083;DHT22;9168;51.194;6.840;2023-12-20T10:37:36;7.10;99.90
18083;DHT22;9168;51.194;6.840;2023-12-20T10:40:04;7.10;99.90
18083;DHT22;9168;51.194;6.840;2023-12-20T10:42:34;7.10;99.90
18083;DHT22;9168;51.194;6.840;2023-12-20T10:45:03;7.00;99.90
18083;DHT22;9168;51.194;6.840;2023-12-20T10:47:31;7.00;99.90
18083;DHT22;9168;51.194;6.840;2023-12-20T10:49:59;7.00;99.90
18083;DHT22;9168;51.194;6.840;2023-12-20T10:52:28;7.10;99.90
18083;DHT22;9168;51.194;6.840;2023-12-20T10:54:56;7.10;99.90
18083;DHT22;9168;51.194;6.840;2023-12-20T10:57:23;7.20;99.90
18083;DHT22;9168;51.194;6.840;2023-12-20T10:59:56;7.10;99.90
18083;DHT22;9168;51.194;6.840;2023-12-20T11:02:25;7.10;99.90
18083;DHT22;9168;51.194;6.840;2023-12-20T11:04:57;7.10;99.90
18083;DHT22;9168;51.194;6.840;2023-12-20T11:07:32;7.20;99.90
18083;DHT22;9168;51.194;6.840;2023-12-20T11:10:03;7.20;99.90
18083;DHT22;9168;51.194;6.840;2023-12-20T11:12:41;7.20;99.90
18083;DHT22;9168;51.194;6.840;2023-12-20T11:15:10;7.20;99.90
18083;DHT22;9168;51.194;6.840;2023-12-20T11:17:39;7.20;99.90
18083;DHT22;9168;51.194;6.840;2023-12-20T11:20:08;7.20;99.90
18083;DHT22;9168;51.194;6.840;2023-12-20T11:22:37;7.20;99.90
18083;DHT22;9168;51.194;6.840;2023-12-20T11:25:08;7.20;99.90
18083;DHT22;9168;51.194;6.840;2023-12-20T11:27:36;7.20;99.90
18083;DHT22;9168;51.194;6.840;2023-12-20T11:30:04;7.20;99.90
18083;DHT22;9168;51.194;6.840;2023-12-20T11:32:35;7.10;99.90
18083;DHT22;9168;51.194;6.840;2023-12-20T11:35:17;7.10;99.90
18083;DHT22;9168;51.194;6.840;2023-12-20T11:37:45;7.20;99.90
18083;DHT22;9168;51.194;6.840;2023-12-20T11:40:15;7.20;99.90
18083;DHT22;9168;51.194;6.840;2023-12-20T11:42:43;7.20;99.90
18083;DHT22;9168;51.194;6.840;2023-12-20T11:45:12;7.20;99.90
18083;DHT22;9168;51.194;6.840;2023-12-20T11:47:42;7.30;99.90
18083;DHT22;9168;51.194;6.840;2023-12-20T11:50:10;7.20;99.90
18083;DHT22;9168;51.194;6.840;2023-12-20T11:52:37;7.20;99.90
18083;DHT22;9168;51.194;6.840;2023-12-20T11:55:04;7.20;99.90
18083;DHT22;9168;51.194;6.840;2023-12-20T11:57:32;7.20;99.90
18083;DHT22;9168;51.194;6.840;2023-12-20T11:59:59;7.30;99.90
18083;DHT22;9168;51.194;6.840;2023-12-20T12:02:26;7.30;99.90
18083;DHT22;9168;51.194;6.840;2023-12-20T12:04:54;7.30;99.90
18083;DHT22;9168;51.194;6.840;2023-12-20T12:07:22;7.40;99.90
18083;DHT22;9168;51.194;6.840;2023-12-20T12:09:48;7.40;99.90
18083;DHT22;9168;51.194;6.840;2023-12-20T12:12:16;7.40;99.90
18083;DHT22;9168;51.194;6.840;2023-12-20T12:14:44;7.50;99.90
18083;DHT22;9168;51.194;6.840;2023-12-20T12:17:11;7.50;99.90
18083;DHT22;9168;51.194;6.840;2023-12-20T12:19:38;7.50;99.90
18083;DHT22;9168;51.194;6.840;2023-12-20T12:22:07;7.50;99.90
18083;DHT22;9168;51.194;6.840;2023-12-20T12:24:38;7.60;99.90
18083;DHT22;9168;51.194;6.840;2023-12-20T12:27:06;7.50;99.90
18083;DHT22;9168;51.194;6.840;2023-12-20T12:29:33;7.50;99.90
18083;DHT22;9168;51.194;6.840;2023-12-20T12:32:00;7.50;99.90
18083;DHT22;9168;51.194;6.840;2023-12-20T12:34:27;7.50;99.90
18083;DHT22;9168;51.194;6.840;2023-12-20T12:36:54;7.50;99.90
18083;DHT22;9168;51.194;6.840;2023-12-20T12:39:30;7.50;99.90
18083;DHT22;9168;51.194;6.840;2023-12-20T12:42:05;7.50;99.90
18083;DHT22;9168;51.194;6.840;2023-12-20T12:44:31;7.40;99.90
18083;DHT22;9168;51.194;6.840;2023-12-20T12:47:13;7.40;99.90
18083;DHT22;9168;51.194;6.840;2023-12-20T12:49:40;7.40;99.90
18083;DHT22;9168;51.194;6.840;2023-12-20T12:52:07;7.40;99.90
18083;DHT22;9168;51.194;6.840;2023-12-20T12:54:35;7.40;99.90
18083;DHT22;9168;51.194;6.840;2023-12-20T12:57:03;7.40;99.90
18083;DHT22;9168;51.194;6.840;2023-12-20T12:59:30;7.40;99.90
18083;DHT22;9168;51.194;6.840;2023-12-20T13:01:57;7.40;99.90
18083;DHT22;9168;51.194;6.840;2023-12-20T13:04:24;7.40;99.90
18083;DHT22;9168;51.194;6.840;2023-12-20T13:06:50;7.40;99.90
18083;DHT22;9168;51.194;6.840;2023-12-20T13:09:18;7.40;99.90
18083;DHT22;9168;51.194;6.840;2023-12-20T13:11:46;7.40;99.90
18083;DHT22;9168;51.194;6.840;2023-12-20T13:14:13;7.40;99.90
18083;DHT22;9168;51.194;6.840;2023-12-20T13:16:41;7.40;99.90
18083;DHT22;9168;51.194;6.840;2023-12-20T13:19:08;7.40;99.90
18083;DHT22;9168;51.194;6.840;2023-12-20T13:21:35;7.30;99.90
18083;DHT22;9168;51.194;6.840;2023-12-20T13:24:02;7.30;99.90
18083;DHT22;9168;51.194;6.840;2023-12-20T13:26:29;7.30;99.90
18083;DHT22;9168;51.194;6.840;2023-12-20T13:28:58;7.30;99.90
18083;DHT22;9168;51.194;6.840;2023-12-20T13:31:24;7.30;99.90
18083;DHT22;9168;51.194;6.840;2023-12-20T13:33:51;7.30;99.90
18083;DHT22;9168;51.194;6.840;2023-12-20T13:36:18;7.30;99.90
18083;DHT22;9168;51.194;6.840;2023-12-20T13:38:45;7.30;99.90
18083;DHT22;9168;51.194;6.840;2023-12-20T13:41:12;7.30;99.90
18083;DHT22;9168;51.194;6.840;2023-12-20T13:43:39;7.30;99.90
18083;DHT22;9168;51.194;6.840;2023-12-20T13:46:07;7.30;99.90
18083;DHT22;9168;51.194;6.840;2023-12-20T13:48:34;7.30;99.90
18083;DHT22;9168;51.194;6.840;2023-12-20T13:51:01;7.30;99.90
18083;DHT22;9168;51.194;6.840;2023-12-20T13:53:29;7.30;99.90
18083;DHT22;9168;51.194;6.840;2023-12-20T13:55:55;7.30;99.90
18083;DHT22;9168;51.194;6.840;2023-12-20T13:58:23;7.30;99.90
18083;DHT22;9168;51.194;6.840;2023-12-20T14:00:50;7.20;99.90
18083;DHT22;9168;51.194;6.840;2023-12-20T14:03:18;7.20;99.90
18083;DHT22;9168;51.194;6.840;2023-12-20T14:05:45;7.20;99.90
18083;DHT22;9168;51.194;6.840;2023-12-20T14:08:12;7.20;99.90
18083;DHT22;9168;51.194;6.840;2023-12-20T14:10:39;7.20;99.90
18083;DHT22;9168;51.194;6.840;2023-12-20T14:13:05;7.20;99.90
18083;DHT22;9168;51.194;6.840;2023-12-20T14:15:32;7.20;99.90
18083;DHT22;9168;51.194;6.840;2023-12-20T14:18:03;7.30;99.90
18083;DHT22;9168;51.194;6.840;2023-12-20T14:20:33;7.30;99.90
18083;DHT22;9168;51.194;6.840;2023-12-20T14:23:00;7.30;99.90
18083;DHT22;9168;51.194;6.840;2023-12-20T14:25:27;7.30;99.90
18083;DHT22;9168;51.194;6.840;2023-12-20T14:27:54;7.40;99.90
18083;DHT22;9168;51.194;6.840;2023-12-20T14:30:21;7.30;99.90
18083;DHT22;9168;51.194;6.840;2023-12-20T14:32:49;7.40;99.90
18083;DHT22;9168;51.194;6.840;2023-12-20T14:35:16;7.30;99.90
18083;DHT22;9168;51.194;6.840;2023-12-20T14:37:46;7.40;99.90
18083;DHT22;9168;51.194;6.840;2023-12-20T14:40:13;7.40;99.90
18083;DHT22;9168;51.194;6.840;2023-12-20T14:42:41;7.40;99.90
18083;DHT22;9168;51.194;6.840;2023-12-20T14:45:09;7.40;99.90
18083;DHT22;9168;51.194;6.840;2023-12-20T14:47:37;7.40;99.90
18083;DHT22;9168;51.194;6.840;2023-12-20T14:50:05;7.40;99.90
18083;DHT22;9168;51.194;6.840;2023-12-20T14:52:32;7.40;99.90
18083;DHT22;9168;51.194;6.840;2023-12-20T14:55:01;7.40;99.90
18083;DHT22;9168;51.194;6.840;2023-12-20T14:57:29;7.40;99.90
18083;DHT22;9168;51.194;6.840;2023-12-20T14:59:56;7.50;99.90
18083;DHT22;9168;51.194;6.840;2023-12-20T15:02:23;7.50;99.90
18083;DHT22;9168;51.194;6.840;2023-12-20T15:04:50;7.50;99.90
18083;DHT22;9168;51.194;6.840;2023-12-20T15:07:17;7.50;99.90
18083;DHT22;9168;51.194;6.840;2023-12-20T15:09:44;7.50;99.90
18083;DHT22;9168;51.194;6.840;2023-12-20T15:12:14;7.50;99.90
18083;DHT22;9168;51.194;6.840;2023-12-20T15:14:41;7.50;99.90
18083;DHT22;9168;51.194;6.840;2023-12-20T15:17:08;7.50;99.90
18083;DHT22;9168;51.194;6.840;2023-12-20T15:19:35;7.60;99.90
18083;DHT22;9168;51.194;6.840;2023-12-20T15:22:02;7.60;99.90
18083;DHT22;9168;51.194;6.840;2023-12-20T15:24:29;7.60;99.90
18083;DHT22;9168;51.194;6.840;2023-12-20T15:27:04;7.60;99.90
18083;DHT22;9168;51.194;6.840;2023-12-20T15:29:32;7.60;99.90
18083;DHT22;9168;51.194;6.840;2023-12-20T15:31:59;7.60;99.90
18083;DHT22;9168;51.194;6.840;2023-12-20T15:34:26;7.70;99.90
18083;DHT22;9168;51.194;6.840;2023-12-20T15:36:53;7.60;99.90
18083;DHT22;9168;51.194;6.840;2023-12-20T15:39:20;7.70;99.90
18083;DHT22;9168;51.194;6.840;2023-12-20T15:41:47;7.70;99.90
18083;DHT22;9168;51.194;6.840;2023-12-20T15:44:14;7.70;99.90
18083;DHT22;9168;51.194;6.840;2023-12-20T15:46:43;7.70;99.90
18083;DHT22;9168;51.194;6.840;2023-12-20T15:49:10;7.70;99.90
18083;DHT22;9168;51.194;6.840;2023-12-20T15:51:37;7.70;99.90
18083;DHT22;9168;51.194;6.840;2023-12-20T15:54:04;7.70;99.90
18083;DHT22;9168;51.194;6.840;2023-12-20T15:56:33;7.70;99.90
18083;DHT22;9168;51.194;6.840;2023-12-20T15:59:00;7.70;99.90
18083;DHT22;9168;51.194;6.840;2023-12-20T16:01:29;7.60;99.90
18083;DHT22;9168;51.194;6.840;2023-12-20T16:03:57;7.60;99.90
18083;DHT22;9168;51.194;6.840;2023-12-20T16:06:24;7.70;99.90
18083;DHT22;9168;51.194;6.840;2023-12-20T16:08:51;7.70;99.90
18083;DHT22;9168;51.194;6.840;2023-12-20T16:11:18;7.70;99.90
18083;DHT22;9168;51.194;6.840;2023-12-20T16:13:45;7.70;99.90
18083;DHT22;9168;51.194;6.840;2023-12-20T16:16:12;7.70;99.90
18083;DHT22;9168;51.194;6.840;2023-12-20T16:18:39;7.60;99.90
18083;DHT22;9168;51.194;6.840;2023-12-20T16:21:07;7.60;99.90
18083;DHT22;9168;51.194;6.840;2023-12-20T16:23:34;7.70;99.90
18083;DHT22;9168;51.194;6.840;2023-12-20T16:26:01;7.70;99.90
18083;DHT22;9168;51.194;6.840;2023-12-20T16:28:28;7.70;99.90
18083;DHT22;9168;51.194;6.840;2023-12-20T16:30:55;7.70;99.90
18083;DHT22;9168;51.194;6.840;2023-12-20T16:33:22;7.70;99.90
18083;DHT22;9168;51.194;6.840;2023-12-20T16:35:49;7.70;99.90
18083;DHT22;9168;51.194;6.840;2023-12-20T16:38:17;7.70;99.90
18083;DHT22;9168;51.194;6.840;2023-12-20T16:40:44;7.70;99.90
18083;DHT22;9168;51.194;6.840;2023-12-20T16:43:11;7.70;99.90
18083;DHT22;9168;51.194;6.840;2023-12-20T16:45:38;7.70;99.90
18083;DHT22;9168;51.194;6.840;2023-12-20T16:48:05;7.70;99.90
18083;DHT22;9168;51.194;6.840;2023-12-20T16:50:32;7.70;99.90
18083;DHT22;9168;51.194;6.840;2023-12-20T16:52:59;7.70;99.90
18083;DHT22;9168;51.194;6.840;2023-12-20T16:55:28;7.70;99.90
18083;DHT22;9168;51.194;6.840;2023-12-20T16:57:56;7.70;99.90
18083;DHT22;9168;51.194;6.840;2023-12-20T17:00:23;7.70;99.90
18083;DHT22;9168;51.194;6.840;2023-12-20T17:02:52;7.80;99.90
18083;DHT22;9168;51.194;6.840;2023-12-20T17:05:18;7.70;99.90
18083;DHT22;9168;51.194;6.840;2023-12-20T17:14:46;7.70;99.90
18083;DHT22;9168;51.194;6.840;2023-12-20T17:17:35;7.80;99.90
18083;DHT22;9168;51.194;6.840;2023-12-20T17:20:07;7.80;99.90
18083;DHT22;9168;51.194;6.840;2023-12-20T17:23:00;7.80;99.90
18083;DHT22;9168;51.194;6.840;2023-12-20T17:25:44;7.80;99.90
18083;DHT22;9168;51.194;6.840;2023-12-20T17:50:57;7.90;99.90
18083;DHT22;9168;51.194;6.840;2023-12-20T17:57:02;7.90;99.90
18083;DHT22;9168;51.194;6.840;2023-12-20T18:00:12;7.90;99.90
18083;DHT22;9168;51.194;6.840;2023-12-20T18:06:40;8.00;99.90
18083;DHT22;9168;51.194;6.840;2023-12-20T18:33:36;8.10;99.90
18083;DHT22;9168;51.194;6.840;2023-12-20T18:36:17;8.10;99.90
18083;DHT22;9168;51.194;6.840;2023-12-20T18:39:22;8.20;99.90
18083;DHT22;9168;51.194;6.840;2023-12-20T18:41:52;8.20;99.90
18083;DHT22;9168;51.194;6.840;2023-12-20T18:44:19;8.20;99.90
18083;DHT22;9168;51.194;6.840;2023-12-20T18:50:14;8.20;99.90
18083;DHT22;9168;51.194;6.840;2023-12-20T18:52:41;8.20;99.90
18083;DHT22;9168;51.194;6.840;2023-12-20T18:55:08;8.20;99.90
18083;DHT22;9168;51.194;6.840;2023-12-20T18:58:09;8.30;99.90
18083;DHT22;9168;51.194;6.840;2023-12-20T19:00:40;8.20;99.90
18083;DHT22;9168;51.194;6.840;2023-12-20T19:03:08;8.30;99.90
18083;DHT22;9168;51.194;6.840;2023-12-20T19:05:37;8.30;99.90
18083;DHT22;9168;51.194;6.840;2023-12-20T19:08:07;8.30;99.90
18083;DHT22;9168;51.194;6.840;2023-12-20T19:10:34;8.30;99.90
18083;DHT22;9168;51.194;6.840;2023-12-20T19:13:04;8.30;99.90
18083;DHT22;9168;51.194;6.840;2023-12-20T19:15:33;8.30;99.90
18083;DHT22;9168;51.194;6.840;2023-12-20T19:18:08;8.30;99.90
18083;DHT22;9168;51.194;6.840;2023-12-20T19:20:36;8.40;99.90
18083;DHT22;9168;51.194;6.840;2023-12-20T19:23:03;8.40;99.90
18083;DHT22;9168;51.194;6.840;2023-12-20T19:25:32;8.40;99.90
18083;DHT22;9168;51.194;6.840;2023-12-20T19:27:59;8.40;99.90
18083;DHT22;9168;51.194;6.840;2023-12-20T19:30:26;8.40;99.90
18083;DHT22;9168;51.194;6.840;2023-12-20T19:32:53;8.50;99.90
18083;DHT22;9168;51.194;6.840;2023-12-20T19:35:19;8.40;99.90
18083;DHT22;9168;51.194;6.840;2023-12-20T19:37:48;8.40;99.90
18083;DHT22;9168;51.194;6.840;2023-12-20T19:40:15;8.40;99.90
18083;DHT22;9168;51.194;6.840;2023-12-20T19:42:43;8.40;99.90
18083;DHT22;9168;51.194;6.840;2023-12-20T19:45:10;8.40;99.90
18083;DHT22;9168;51.194;6.840;2023-12-20T19:47:38;8.40;99.90
18083;DHT22;9168;51.194;6.840;2023-12-20T19:50:06;8.40;99.90
18083;DHT22;9168;51.194;6.840;2023-12-20T19:52:32;8.40;99.90
18083;DHT22;9168;51.194;6.840;2023-12-20T19:55:01;8.40;99.90
18083;DHT22;9168;51.194;6.840;2023-12-20T19:57:28;8.50;99.90
18083;DHT22;9168;51.194;6.840;2023-12-20T19:59:54;8.50;99.90
18083;DHT22;9168;51.194;6.840;2023-12-20T20:02:22;8.50;99.90
18083;DHT22;9168;51.194;6.840;2023-12-20T20:04:49;8.50;99.90
18083;DHT22;9168;51.194;6.840;2023-12-20T20:07:16;8.50;99.90
18083;DHT22;9168;51.194;6.840;2023-12-20T20:09:45;8.50;99.90
18083;DHT22;9168;51.194;6.840;2023-12-20T20:12:13;8.50;99.90